Airfield :







YOU CAN JOIN US ON...

 
LOGIN :

Register | Disclaimer

   EN    FR    IT 

 









Legend :    VFR   Marginal VFR   IFR   Intensive IFR   Very Intensive IFR
Visi :
Ceiling :
>= 8 km
>= 3000ft
5 to 8 km
1000 to 3000 ft
1500m to 5 km
500 to 1000 ft
800 to 1500m
200 to 500 ft
< 800m
< 200 ft
Symbols :   Thunderstorms  Fog  Heavy snow  Heavy precipitations  Wind > 20 kt






- Airport Elevation : 461 ft
- IATA code : YYT


CYYT - St John's Int

CURRENT METAR :
  • 200000Z 14014KT 1/2SM SN DRSN OVC005 M05/M06 A2989 RMK SN6SF2 /S02/ WND EST VIA CYHZ SLP133

EXPIRED METARs :
  • 192331Z 09014KT 3/4SM -SN DRSN OVC006 M05/M06 A2991 RMK SN5SF3 WND EST VIA CYHZ SLP142
  • 192300Z 14009KT 1 1/2SM -SN BR OVC007 M06/M07 A2997 RMK SF8 WND EST VIA CYHZ SLP160
  • 192252Z 12009KT 1 1/2SM -SN BR BKN006 OVC022 M06/M08 A2997 RMK FU7SC1 WND EST VIA CYHZ SLP162
  • 192200Z 14005KT 1 1/2SM -SN BR OVC020 M09/M11 A3003 RMK SN2SC6 WND EST VIA CYHZ SLP183

TAF TAF CYYT
Valid from the 20 at 00:00 until the 21 at 00:00 UTC


192338Z 2000/2024 10015KT 3/4SM -SN BLSN VV006
TEMPO 2000/2001 6SM -SN OVC010
BECMG 2000/2001 14020G30KT
FM200100 13025G40KT 1/4SM SN +BLSN VV003
TEMPO 2001/2006 1SM -SN BLSN OVC006
FM200600 15025G40KT 2SM -SNRA BR OVC006
FM200800 22020G30KT P6SM -RA BKN007 OVC020
FM201000 23020G30KT P6SM -SHRASN BKN015
FM201500 24020G30KT P6SM -SHSNRA BKN015
FM201700 31015G25KT P6SM -SHSN BKN015
PROB30 2017/2024 5SM -FZDZ BR RMK NXT FCST BY 200600Z



MET'MAP, your aeronautical weather chart ! - Copyright ORBIFLY December 2007 - Disclaimer

ORBIFLY MET'MAP TEAM :

Programming & Development : Alexandra Zaïnal
Concept & original design : Baudouin d'Aumeries
Assistance for programming : Marc-Olivier Méhu
Technical & hardware support : Manuel Goepfert

Contact : metmap@orbifly.com




SOURCES & CREDITS :

   NOAA